Time;durP1;ratioP1;P1;durP2;ratioP2;P2;SDS_P1;SDS_P2;PMS_P1;PMS_P2;Temp;Humidity;BMP_temperature;BMP_pressure;BME280_temperature;BME280_humidity;BME280_pressure;Samples;Min_cycle;Max_cycle;Signal;HPM_P1;HPM_P2
2022/10/14 00:01:24;;;;;;;36.50;21.13;;;;;;;11.43;79.62;101346.84;124713;1099;104239;-74
2022/10/14 00:04:07;;;;;;;40.75;23.60;;;;;;;11.45;79.46;101345.20;124657;1099;104280;-75
2022/10/14 00:06:38;;;;;;;38.00;22.50;;;;;;;11.49;79.58;101347.12;124607;1099;104238;-75
2022/10/14 00:09:11;;;;;;;38.47;21.70;;;;;;;11.52;79.57;101349.01;124661;1099;104169;-75
2022/10/14 00:11:42;;;;;;;35.73;20.77;;;;;;;11.49;79.74;101349.75;124626;1099;104179;-75
2022/10/14 00:14:16;;;;;;;39.47;21.80;;;;;;;11.48;79.40;101344.42;124629;1099;102220;-75
2022/10/14 00:16:48;;;;;;;34.53;20.83;;;;;;;11.45;79.74;101349.55;124602;1099;104220;-75
2022/10/14 00:19:19;;;;;;;39.20;21.30;;;;;;;11.42;79.44;101345.06;124633;1099;104285;-75
2022/10/14 00:21:53;;;;;;;37.13;21.37;;;;;;;11.40;79.54;101346.70;124614;1099;104166;-75
2022/10/14 00:24:24;;;;;;;36.50;20.35;;;;;;;11.41;79.70;101343.26;124627;1099;104245;-75
2022/10/14 00:26:55;;;;;;;35.90;20.93;;;;;;;11.41;79.91;101339.74;124682;1099;104233;-74
2022/10/14 00:29:26;;;;;;;38.17;21.53;;;;;;;11.40;79.80;101333.56;124612;1099;104178;-74
2022/10/14 00:31:58;;;;;;;37.40;21.17;;;;;;;11.43;79.86;101335.45;124589;1099;104205;-74
2022/10/14 00:34:29;;;;;;;38.63;22.53;;;;;;;11.44;79.95;101332.89;124552;1099;104274;-75
2022/10/14 00:37:00;;;;;;;38.70;22.93;;;;;;;11.46;79.99;101332.95;124606;1099;102835;-75
2022/10/14 00:39:31;;;;;;;36.37;21.90;;;;;;;11.47;79.63;101333.02;124619;1099;101855;-74
2022/10/14 00:42:02;;;;;;;36.00;21.13;;;;;;;11.42;80.01;101329.30;124586;1099;104355;-74
2022/10/14 00:45:07;;;;;;;34.40;21.10;;;;;;;11.38;79.72;101324.72;124496;1099;102646;-74
2022/10/14 00:47:40;;;;;;;35.70;21.20;;;;;;;11.34;79.88;101320.14;124084;1102;104526;-74
2022/10/14 00:50:15;;;;;;;36.93;20.93;;;;;;;11.30;79.70;101315.60;124542;1099;104294;-74
2022/10/14 00:52:46;;;;;;;35.28;20.95;;;;;;;11.28;79.66;101311.98;124596;1099;104241;-75
2022/10/14 00:55:19;;;;;;;34.67;21.60;;;;;;;11.25;80.17;101310.13;124623;1099;104163;-75
2022/10/14 00:57:50;;;;;;;37.17;22.03;;;;;;;11.24;80.32;101310.06;124563;1099;104371;-74
2022/10/14 01:00:22;;;;;;;34.77;21.83;;;;;;;11.24;80.10;101308.33;124665;1099;104239;-75
2022/10/14 01:02:55;;;;;;;36.57;22.17;;;;;;;11.27;80.30;101308.47;124627;1099;102552;-74
2022/10/14 01:05:33;;;;;;;40.90;23.95;;;;;;;11.31;80.23;101315.67;124640;1099;102864;-75
2022/10/14 01:08:09;;;;;;;36.67;22.23;;;;;;;11.35;80.50;101302.67;124657;1099;104193;-74
2022/10/14 01:10:51;;;;;;;35.63;20.93;;;;;;;11.33;80.11;101311.37;124612;1099;104641;-74
2022/10/14 01:13:29;;;;;;;37.57;21.60;;;;;;;11.30;80.34;101307.72;124649;1099;104224;-75
2022/10/14 01:16:09;;;;;;;37.13;21.73;;;;;;;11.27;80.30;101299.70;124685;1099;112428;-74
2022/10/14 01:18:57;;;;;;;39.65;23.00;;;;;;;11.25;80.50;101303.95;124665;1099;102957;-75
2022/10/14 01:21:32;;;;;;;38.47;22.57;;;;;;;11.26;80.32;101301.41;124638;1099;104239;-74
2022/10/14 01:24:37;;;;;;;38.27;23.93;;;;;;;11.29;80.15;101298.03;124706;1099;104106;-74
2022/10/14 01:27:21;;;;;;;35.58;22.35;;;;;;;11.31;80.63;101294.66;124702;1099;103310;-75
2022/10/14 01:30:10;;;;;;;42.03;21.27;;;;;;;11.33;80.72;101300.87;124694;1099;104242;-75
2022/10/14 01:32:57;;;;;;;37.07;22.37;;;;;;;11.37;80.30;101296.64;124718;1099;102773;-75
2022/10/14 01:35:40;;;;;;;40.30;24.40;;;;;;;11.37;80.35;101301.89;124611;1099;103097;-74
2022/10/14 01:38:18;;;;;;;38.73;24.10;;;;;;;11.33;80.25;101297.35;124599;1099;104172;-74
2022/10/14 01:40:55;;;;;;;39.60;24.10;;;;;;;11.29;80.48;101296.28;124592;1098;104238;-74
2022/10/14 01:43:31;;;;;;;42.10;25.77;;;;;;;11.28;80.67;101297.14;124625;1099;104323;-74
2022/10/14 01:46:05;;;;;;;41.80;26.00;;;;;;;11.29;80.56;101285.78;124637;1099;104166;-74
2022/10/14 01:48:42;;;;;;;42.43;27.10;;;;;;;11.30;80.67;101289.33;124749;1099;104207;-75
2022/10/14 01:51:18;;;;;;;40.80;26.47;;;;;;;11.33;80.57;101292.09;124661;1098;102364;-75
2022/10/14 01:53:54;;;;;;;43.27;25.50;;;;;;;11.32;80.53;101279.77;124638;1099;104191;-75
2022/10/14 01:56:31;;;;;;;41.50;27.20;;;;;;;11.31;80.49;101288.48;124502;1099;104159;-74
2022/10/14 01:59:04;;;;;;;41.90;27.60;;;;;;;11.32;80.77;101292.91;124361;1099;104157;-74
2022/10/14 02:01:35;;;;;;;43.45;27.95;;;;;;;11.30;80.53;101289.33;124197;1099;104231;-74
2022/10/14 02:04:16;;;;;;;44.00;28.10;;;;;;;11.30;80.56;101286.70;124605;1099;104204;-74
2022/10/14 02:06:53;;;;;;;43.10;28.03;;;;;;;11.32;80.93;101285.03;124574;1099;102393;-74
2022/10/14 02:09:33;;;;;;;41.17;26.93;;;;;;;11.34;80.59;101280.73;124580;1099;104204;-75
2022/10/14 02:12:19;;;;;;;39.47;23.47;;;;;;;11.31;80.63;101284.14;124220;1099;104179;-75
2022/10/14 02:14:59;;;;;;;37.47;22.90;;;;;;;11.28;80.54;101276.12;124588;1099;104672;-75
2022/10/14 02:17:36;;;;;;;35.83;21.80;;;;;;;11.25;80.77;101273.36;124420;1099;104290;-74
2022/10/14 02:20:16;;;;;;;36.13;22.77;;;;;;;11.26;81.00;101280.39;124746;1099;104245;-75
2022/10/14 02:22:53;;;;;;;36.27;22.17;;;;;;;11.27;81.02;101283.94;124308;1099;104243;-75
2022/10/14 02:25:28;;;;;;;36.80;21.90;;;;;;;11.30;80.72;101277.08;124210;1099;104217;-75
2022/10/14 02:28:01;;;;;;;36.57;21.77;;;;;;;11.32;80.93;101279.77;124584;1099;104251;-74
2022/10/14 02:30:36;;;;;;;36.65;20.60;;;;;;;11.31;80.45;101277.97;124590;1099;104293;-74
2022/10/14 02:33:08;;;;;;;31.83;18.70;;;;;;;11.26;80.61;101283.02;124586;1099;102870;-74
2022/10/14 02:35:41;;;;;;;35.87;19.27;;;;;;;11.23;80.56;101280.25;124672;1099;104277;-74
2022/10/14 02:38:13;;;;;;;33.00;19.77;;;;;;;11.27;80.80;101284.82;124607;1098;104261;-75
2022/10/14 02:40:47;;;;;;;33.87;19.37;;;;;;;11.30;80.84;101286.70;124576;1099;104564;-75
2022/10/14 02:43:19;;;;;;;31.63;18.83;;;;;;;11.31;80.97;101289.39;124612;1099;104204;-75
2022/10/14 02:45:56;;;;;;;35.00;19.30;;;;;;;11.34;80.80;101293.88;124651;1099;103643;-75
2022/10/14 02:48:28;;;;;;;35.07;19.90;;;;;;;11.35;80.73;101293.05;124554;1099;104319;-75
2022/10/14 02:50:59;;;;;;;32.70;19.23;;;;;;;11.37;80.69;101286.12;124636;1099;104226;-74
2022/10/14 02:53:30;;;;;;;36.17;19.83;;;;;;;11.35;80.81;101293.05;124494;1099;104323;-74
2022/10/14 02:56:02;;;;;;;34.50;20.00;;;;;;;11.36;80.87;101294.86;124233;1099;104287;-74
2022/10/14 02:58:34;;;;;;;37.37;19.27;;;;;;;11.36;81.15;101286.06;124592;1099;104185;-75
2022/10/14 03:01:05;;;;;;;31.87;18.37;;;;;;;11.35;80.81;101285.17;124657;1099;104224;-75
2022/10/14 03:03:37;;;;;;;30.90;17.30;;;;;;;11.34;80.85;101283.36;124166;1099;102796;-74
2022/10/14 03:06:08;;;;;;;33.77;18.70;;;;;;;11.30;80.75;101282.33;124541;1099;104163;-75
2022/10/14 03:08:39;;;;;;;33.20;19.43;;;;;;;11.28;80.49;101285.70;124529;1099;104229;-75
2022/10/14 03:11:11;;;;;;;35.13;20.03;;;;;;;11.24;80.95;101286.42;124609;1099;104179;-75
2022/10/14 03:13:42;;;;;;;33.57;19.17;;;;;;;11.21;80.65;101284.55;124568;1099;104179;-74
2022/10/14 03:16:14;;;;;;;32.03;19.93;;;;;;;11.22;80.86;101282.80;124242;1099;104172;-74
2022/10/14 03:18:47;;;;;;;30.35;16.77;;;;;;;11.24;80.76;101283.80;124208;1099;102902;-75
2022/10/14 03:21:25;;;;;;;32.87;17.33;;;;;;;11.25;80.79;101282.94;124178;1099;104405;-74
2022/10/14 03:23:56;;;;;;;32.70;17.03;;;;;;;11.24;80.79;101286.42;124212;1099;104120;-75
2022/10/14 03:26:33;;;;;;;37.47;19.03;;;;;;;11.26;80.79;101285.64;124242;1099;104443;-75
2022/10/14 03:29:04;;;;;;;32.30;18.97;;;;;;;11.27;80.86;101283.94;124224;1099;104242;-75
2022/10/14 03:31:49;;;;;;;33.57;18.33;;;;;;;11.28;80.68;101278.75;124255;1099;102931;-74
2022/10/14 03:34:30;;;;;;;27.97;16.63;;;;;;;11.29;80.96;101275.27;124593;1099;104421;-75
2022/10/14 03:37:10;;;;;;;33.53;18.10;;;;;;;11.31;80.89;101280.59;124214;1099;104232;-74
2022/10/14 03:39:46;;;;;;;31.63;17.97;;;;;;;11.28;80.72;101272.58;124552;1099;104210;-74
2022/10/14 03:42:18;;;;;;;36.10;18.60;;;;;;;11.24;81.10;101275.91;124222;1102;104238;-74
2022/10/14 03:44:51;;;;;;;32.50;18.23;;;;;;;11.20;80.77;101279.22;124231;1099;104349;-74
2022/10/14 03:47:26;;;;;;;33.47;19.77;;;;;;;11.20;80.87;101273.97;124498;1099;104281;-74
2022/10/14 03:49:57;;;;;;;32.10;19.20;;;;;;;11.21;81.17;101281.03;124763;1099;104269;-75
2022/10/14 03:52:36;;;;;;;34.10;19.90;;;;;;;11.22;81.22;101274.92;124707;1099;102809;-74
2022/10/14 03:55:15;;;;;;;33.70;19.90;;;;;;;11.22;81.18;101280.17;124615;1099;104241;-74
2022/10/14 03:57:46;;;;;;;33.50;18.73;;;;;;;11.19;80.93;101278.33;124677;1099;103058;-74
2022/10/14 04:00:19;;;;;;;33.97;20.20;;;;;;;11.18;81.45;101283.52;124203;1099;104217;-74
2022/10/14 04:02:53;;;;;;;35.83;19.53;;;;;;;11.18;81.17;101280.89;124334;1099;104252;-75
2022/10/14 04:05:36;;;;;;;34.50;19.97;;;;;;;11.20;81.28;101276.59;124448;1098;102908;-75
2022/10/14 04:08:16;;;;;;;34.20;19.63;;;;;;;11.21;81.12;101275.77;124759;1099;104194;-74
2022/10/14 04:10:55;;;;;;;30.83;18.53;;;;;;;11.21;81.06;101273.14;124642;1099;104156;-74
2022/10/14 04:13:27;;;;;;;31.47;16.40;;;;;;;11.19;81.42;101280.95;124711;1099;104255;-74
2022/10/14 04:16:02;;;;;;;28.60;17.03;;;;;;;11.16;80.79;101278.19;124643;1099;104316;-75
2022/10/14 04:18:38;;;;;;;32.77;17.00;;;;;;;11.15;81.24;101279.01;124696;1099;104278;-74
2022/10/14 04:21:11;;;;;;;30.90;17.23;;;;;;;11.15;81.35;101285.15;124682;1099;104194;-75
2022/10/14 04:23:43;;;;;;;29.37;17.40;;;;;;;11.17;81.28;101284.33;124414;1099;104297;-75
2022/10/14 04:26:20;;;;;;;31.93;18.00;;;;;;;11.18;81.27;101281.77;124347;1099;104217;-75
2022/10/14 04:28:52;;;;;;;31.50;17.53;;;;;;;11.19;81.66;101278.33;124285;1099;104241;-74
2022/10/14 04:31:36;;;;;;;30.43;16.60;;;;;;;11.21;81.53;101275.77;124250;1099;104229;-75
2022/10/14 04:34:09;;;;;;;32.67;18.20;;;;;;;11.22;81.29;101272.30;124686;1099;104176;-75
2022/10/14 04:36:43;;;;;;;30.47;17.70;;;;;;;11.23;81.41;101272.36;124690;1099;104316;-74
2022/10/14 04:39:28;;;;;;;34.03;16.83;;;;;;;11.24;81.35;101270.66;124349;1099;102878;-75
2022/10/14 04:42:00;;;;;;;32.10;17.13;;;;;;;11.24;81.26;101268.03;124715;1099;102016;-75
2022/10/14 04:44:32;;;;;;;30.60;17.33;;;;;;;11.24;81.35;101266.30;124716;1099;104217;-75
2022/10/14 04:47:04;;;;;;;31.70;17.70;;;;;;;11.26;81.37;101266.36;124376;1099;104370;-74
2022/10/14 04:49:36;;;;;;;35.00;17.77;;;;;;;11.28;81.55;101272.58;124617;1098;101885;-74
2022/10/14 04:52:13;;;;;;;31.83;16.20;;;;;;;11.28;81.17;101264.69;124297;1099;104441;-74
2022/10/14 04:54:50;;;;;;;31.43;16.80;;;;;;;11.27;81.27;101271.69;124293;1099;104259;-75
2022/10/14 04:57:23;;;;;;;;;;;;;;;11.29;81.51;101271.75;124670;1099;104259;-75
2022/10/14 04:59:54;;;;;;;35.03;16.63;;;;;;;11.30;81.45;101270.94;124674;1099;104280;-75
2022/10/14 05:02:43;;;;;;;29.00;14.70;;;;;;;11.31;81.25;101272.71;124657;1098;102838;-74
2022/10/14 05:05:15;;;;;;;28.17;14.53;;;;;;;11.33;81.16;101269.34;124630;1098;104179;-74
2022/10/14 05:07:48;;;;;;;29.47;14.33;;;;;;;11.36;81.16;101276.47;124661;1099;104204;-75
2022/10/14 05:10:29;;;;;;;24.80;13.80;;;;;;;11.33;80.80;101277.22;124567;1098;112939;-75
2022/10/14 05:13:00;;;;;;;30.27;13.83;;;;;;;11.32;81.09;101280.66;124613;1099;104181;-74
2022/10/14 05:15:33;;;;;;;28.85;13.40;;;;;;;11.32;80.69;101283.29;124594;1099;104280;-75
2022/10/14 05:18:11;;;;;;;26.13;13.80;;;;;;;11.35;80.68;101290.42;124371;1099;102982;-74
2022/10/14 05:20:59;;;;;;;27.83;13.90;;;;;;;11.38;80.72;101290.56;124525;1099;104227;-74
2022/10/14 05:23:36;;;;;;;31.70;15.03;;;;;;;11.39;80.75;101292.38;124541;1099;104188;-75
2022/10/14 05:26:09;;;;;;;28.03;14.07;;;;;;;11.43;80.74;101288.14;124587;1099;102523;-75
2022/10/14 05:28:41;;;;;;;26.57;14.50;;;;;;;11.47;80.64;101296.23;124593;1099;104241;-75
2022/10/14 05:31:12;;;;;;;28.90;14.53;;;;;;;11.53;80.87;101299.95;124547;1099;107978;-74
2022/10/14 05:33:50;;;;;;;29.23;14.77;;;;;;;11.57;80.81;101301.91;124260;1099;104204;-75
2022/10/14 05:36:21;;;;;;;26.77;13.30;;;;;;;11.60;80.49;101297.67;124695;1099;104267;-75
2022/10/14 05:38:57;;;;;;;28.45;13.35;;;;;;;11.61;80.28;101295.92;124706;1099;104245;-74
2022/10/14 05:41:30;;;;;;;27.27;12.50;;;;;;;11.62;80.14;101296.00;124354;1099;118871;-74
2022/10/14 05:44:01;;;;;;;24.80;10.80;;;;;;;11.60;79.78;101296.78;124625;1099;104780;-74
2022/10/14 05:46:32;;;;;;;27.80;11.53;;;;;;;11.57;79.56;101300.16;124354;1099;104175;-75
2022/10/14 05:49:04;;;;;;;25.43;11.20;;;;;;;11.59;79.62;101295.86;124248;1099;104256;-75
2022/10/14 05:51:37;;;;;;;27.00;11.68;;;;;;;11.60;79.27;101302.04;124687;1099;104267;-75
2022/10/14 05:54:14;;;;;;;24.30;11.13;;;;;;;11.61;79.48;101294.22;124255;1099;104264;-75
2022/10/14 05:56:46;;;;;;;25.40;10.50;;;;;;;11.65;79.51;101296.12;124277;1099;104185;-75
2022/10/14 05:59:19;;;;;;;24.83;11.10;;;;;;;11.69;79.57;101297.19;124626;1099;104240;-74
2022/10/14 06:01:51;;;;;;;27.43;11.07;;;;;;;11.71;79.44;101295.52;124712;1099;104194;-74
2022/10/14 06:04:22;;;;;;;25.63;11.57;;;;;;;11.75;79.54;101305.34;124249;1099;102949;-75
2022/10/14 06:06:54;;;;;;;25.33;10.87;;;;;;;11.81;79.46;101305.61;124721;1099;104623;-74
2022/10/14 06:09:25;;;;;;;29.60;10.47;;;;;;;11.86;79.31;101305.81;124312;1100;104430;-74
2022/10/14 06:11:57;;;;;;;24.93;9.40;;;;;;;11.83;78.31;101311.83;124274;1099;102845;-74
2022/10/14 06:14:28;;;;;;;28.73;9.30;;;;;;;11.83;78.38;101305.68;124349;1099;102059;-74
2022/10/14 06:16:59;;;;;;;24.10;9.10;;;;;;;11.83;78.17;101305.68;124719;1099;102026;-75
2022/10/14 06:19:32;;;;;;;25.13;9.50;;;;;;;11.86;78.30;101305.81;124704;1099;104220;-74
2022/10/14 06:22:03;;;;;;;23.83;9.77;;;;;;;11.88;77.99;101307.66;124775;1099;102921;-74
2022/10/14 06:24:34;;;;;;;20.90;9.73;;;;;;;11.92;78.01;101311.37;124767;1099;104168;-74
2022/10/14 06:27:05;;;;;;;23.40;9.67;;;;;;;11.95;78.09;101316.77;124710;1099;104334;-75
2022/10/14 06:29:37;;;;;;;21.37;9.20;;;;;;;12.00;77.84;101309.08;124759;1099;104252;-74
2022/10/14 06:32:09;;;;;;;22.43;9.20;;;;;;;12.07;77.56;101316.38;124695;1098;104440;-74
2022/10/14 06:34:40;;;;;;;21.30;9.83;;;;;;;12.12;77.35;101317.45;124767;1099;103648;-74
2022/10/14 06:37:12;;;;;;;24.43;9.83;;;;;;;12.16;77.47;101311.50;124674;1099;104198;-75
2022/10/14 06:39:43;;;;;;;22.63;9.43;;;;;;;12.19;76.81;101306.37;124642;1099;104188;-74
2022/10/14 06:42:15;;;;;;;21.23;8.03;;;;;;;12.25;76.51;101315.34;124716;1099;104217;-75
2022/10/14 06:44:46;;;;;;;20.33;8.90;;;;;;;12.22;75.80;101314.39;124609;1099;104361;-74
2022/10/14 06:47:17;;;;;;;24.37;9.03;;;;;;;12.26;76.53;101307.52;124814;1099;104169;-74
2022/10/14 06:49:48;;;;;;;19.20;9.00;;;;;;;12.29;75.71;101309.39;124705;1099;104280;-74
2022/10/14 06:52:19;;;;;;;22.57;8.73;;;;;;;12.32;75.89;101312.14;124853;1098;102904;-75
2022/10/14 06:54:50;;;;;;;21.47;8.93;;;;;;;12.37;76.14;101318.48;124781;1099;104172;-74
2022/10/14 06:57:22;;;;;;;19.13;8.90;;;;;;;12.39;75.16;101320.36;124432;1099;104272;-75
2022/10/14 06:59:53;;;;;;;21.37;8.07;;;;;;;12.44;75.34;101315.28;124694;1099;104364;-74
2022/10/14 07:02:26;;;;;;;19.40;8.73;;;;;;;12.48;75.68;101314.59;124673;1099;101894;-74
2022/10/14 07:04:57;;;;;;;21.80;8.30;;;;;;;12.53;75.17;101315.66;124851;1099;104258;-74
2022/10/14 07:07:28;;;;;;;22.07;8.30;;;;;;;12.57;74.89;101316.67;124800;1098;104172;-75
2022/10/14 07:09:59;;;;;;;17.07;7.13;;;;;;;12.59;74.26;101315.91;124894;1099;103037;-75
2022/10/14 07:12:30;;;;;;;18.23;7.13;;;;;;;12.63;74.52;101313.41;124522;1099;104412;-74
2022/10/14 07:15:03;;;;;;;19.10;7.10;;;;;;;12.68;74.49;101320.63;124513;1099;104070;-75
2022/10/14 07:17:34;;;;;;;16.40;6.90;;;;;;;12.73;74.73;101316.47;124589;1099;102861;-74
2022/10/14 07:20:07;;;;;;;17.83;7.03;;;;;;;12.75;74.12;101313.90;124805;1099;104237;-75
2022/10/14 07:22:38;;;;;;;14.60;5.80;;;;;;;12.80;73.58;101312.34;124768;1099;104300;-74
2022/10/14 07:25:13;;;;;;;19.57;6.37;;;;;;;12.81;73.79;101308.88;124452;1099;104374;-75
2022/10/14 07:27:44;;;;;;;15.03;6.37;;;;;;;12.82;73.38;101313.28;124843;1099;104236;-75
2022/10/14 07:30:15;;;;;;;18.30;6.17;;;;;;;12.86;73.43;101309.06;124811;1099;104957;-74
2022/10/14 07:32:47;;;;;;;21.00;7.07;;;;;;;12.91;73.70;101308.37;124487;1099;104256;-75
2022/10/14 07:35:18;;;;;;;19.27;6.47;;;;;;;12.96;72.97;101311.20;124921;1099;101911;-74
2022/10/14 07:37:50;;;;;;;16.10;6.07;;;;;;;13.00;73.11;101309.59;124822;1099;104079;-75
2022/10/14 07:40:21;;;;;;;16.23;5.67;;;;;;;13.03;71.62;101307.08;124909;1099;104245;-74
2022/10/14 07:43:15;;;;;;;15.40;6.03;;;;;;;13.04;72.48;101308.86;124724;1098;104245;-75
2022/10/14 07:45:59;;;;;;;17.30;5.67;;;;;;;13.09;72.46;101304.69;126119;1098;104149;-74
2022/10/14 07:48:32;;;;;;;15.13;5.60;;;;;;;13.09;71.22;101315.23;124502;1099;104184;-75
2022/10/14 07:51:04;;;;;;;16.70;5.45;;;;;;;13.11;71.96;101303.00;124908;1099;104172;-74
2022/10/14 07:53:37;;;;;;;11.57;4.97;;;;;;;13.15;72.15;101302.28;124860;1099;104166;-74
2022/10/14 07:56:09;;;;;;;17.45;5.62;;;;;;;13.22;72.07;101308.67;124913;1099;103459;-75
2022/10/14 07:58:40;;;;;;;17.13;5.83;;;;;;;13.29;71.96;101311.60;124838;1098;104112;-74
2022/10/14 08:01:11;;;;;;;15.80;5.83;;;;;;;13.35;71.74;101302.16;125023;1099;103347;-74
2022/10/14 08:03:43;;;;;;;17.97;6.17;;;;;;;13.40;71.50;101309.41;124758;1099;104236;-74
2022/10/14 08:06:15;;;;;;;19.50;5.90;;;;;;;13.45;71.78;101302.55;124742;1099;104261;-74
2022/10/14 08:08:46;;;;;;;18.17;5.90;;;;;;;13.52;71.60;101301.02;124847;1099;102340;-74
2022/10/14 08:11:21;;;;;;;17.67;5.70;;;;;;;13.58;70.87;101303.00;124801;1099;102332;-74
2022/10/14 08:13:52;;;;;;;14.23;5.93;;;;;;;13.64;71.08;101304.11;124749;1099;104194;-74
2022/10/14 08:16:25;;;;;;;15.50;5.20;;;;;;;13.62;70.52;101300.53;124875;1098;104268;-75
2022/10/14 08:18:59;;;;;;;16.27;5.80;;;;;;;13.61;70.76;101306.64;124922;1099;102747;-74
2022/10/14 08:21:30;;;;;;;19.00;6.40;;;;;;;13.63;70.69;101304.97;124812;1097;104275;-75
2022/10/14 08:24:01;;;;;;;14.03;5.73;;;;;;;13.69;70.60;101300.75;124848;1099;104242;-74
2022/10/14 08:26:36;;;;;;;15.87;5.70;;;;;;;13.70;70.35;101299.89;124879;1099;102013;-75
2022/10/14 08:29:11;;;;;;;18.67;5.83;;;;;;;13.71;69.50;101299.05;124375;1099;104172;-74
2022/10/14 08:31:42;;;;;;;18.03;5.97;;;;;;;13.69;69.82;101308.66;124881;1099;104191;-74
2022/10/14 08:34:17;;;;;;;20.53;6.47;;;;;;;13.72;69.74;101307.02;124770;1099;104211;-74
2022/10/14 08:36:49;;;;;;;16.77;6.47;;;;;;;13.77;70.19;101307.19;124769;1099;102838;-75
2022/10/14 08:39:20;;;;;;;16.00;7.00;;;;;;;13.78;70.08;101301.97;124903;1099;104162;-75
2022/10/14 08:42:11;;;;;;;23.33;10.47;;;;;;;13.79;70.14;101303.77;124378;1099;104366;-75
2022/10/14 08:44:47;;;;;;;20.10;8.20;;;;;;;13.81;69.33;101299.44;124956;1098;104245;-75
2022/10/14 08:47:25;;;;;;;18.77;7.10;;;;;;;13.85;69.40;101305.70;124946;1099;104256;-75
2022/10/14 08:50:02;;;;;;;19.20;7.87;;;;;;;13.89;69.94;101309.38;124861;1099;104207;-75
2022/10/14 08:52:40;;;;;;;18.37;7.03;;;;;;;13.92;69.95;101307.73;124879;1099;102374;-74
2022/10/14 08:55:23;;;;;;;14.47;5.83;;;;;;;13.92;68.80;101301.56;124397;1102;102858;-75
2022/10/14 08:58:00;;;;;;;16.70;6.60;;;;;;;13.92;68.87;101304.20;124781;1099;102183;-75
2022/10/14 09:00:33;;;;;;;14.73;6.60;;;;;;;13.97;69.32;101302.61;124821;1099;102845;-75
2022/10/14 09:03:16;;;;;;;17.00;6.72;;;;;;;14.02;69.25;101303.66;124825;1099;104248;-75
2022/10/14 09:06:00;;;;;;;14.90;6.43;;;;;;;14.09;68.38;101305.67;124782;1099;118824;-75
2022/10/14 09:08:55;;;;;;;13.68;5.80;;;;;;;14.15;69.27;101305.89;124777;1099;102719;-74
2022/10/14 09:11:59;;;;;;;13.63;5.40;;;;;;;14.20;68.40;101306.05;124975;1099;104204;-74
2022/10/14 09:14:37;;;;;;;13.17;5.50;;;;;;;14.27;67.96;101310.66;124804;1098;104181;-74
2022/10/14 09:17:14;;;;;;;19.40;6.70;;;;;;;14.34;68.08;101302.11;124879;1099;102703;-75
2022/10/14 09:19:51;;;;;;;13.70;5.20;;;;;;;14.46;68.93;101301.63;124850;1099;104364;-74
2022/10/14 09:22:23;;;;;;;13.10;5.20;;;;;;;14.57;68.72;101304.63;124729;1099;102195;-74
2022/10/14 09:24:54;;;;;;;15.37;5.10;;;;;;;14.68;67.92;101299.72;124723;1099;104214;-75
2022/10/14 09:27:26;;;;;;;16.47;5.43;;;;;;;14.81;68.08;101299.23;124739;1099;104402;-75
2022/10/14 09:30:03;;;;;;;18.90;5.83;;;;;;;14.89;68.18;101295.08;124734;1098;102296;-75
2022/10/14 09:32:42;;;;;;;17.63;5.10;;;;;;;15.01;67.77;101297.20;124729;1099;103072;-75
2022/10/14 09:35:24;;;;;;;16.37;5.30;;;;;;;15.10;67.42;101300.12;124810;1099;104495;-75
2022/10/14 09:37:55;;;;;;;14.17;5.00;;;;;;;15.19;67.53;101302.16;124704;1099;104200;-74
2022/10/14 09:40:32;;;;;;;18.23;5.13;;;;;;;15.25;67.60;101297.05;124722;1099;104185;-74
2022/10/14 09:43:11;;;;;;;17.17;5.50;;;;;;;15.31;67.54;101298.08;124881;1099;104172;-75
2022/10/14 09:45:58;;;;;;;14.53;4.80;;;;;;;15.34;66.81;101299.05;124965;1099;104320;-75
2022/10/14 09:48:37;;;;;;;10.93;4.63;;;;;;;15.38;67.03;101300.94;124953;1099;102222;-75
2022/10/14 09:51:11;;;;;;;13.70;4.20;;;;;;;15.43;66.21;101301.96;125013;1099;104265;-74
2022/10/14 09:53:47;;;;;;;17.23;4.53;;;;;;;15.48;66.95;101304.73;124959;1098;104316;-75
2022/10/14 09:56:30;;;;;;;12.50;4.67;;;;;;;15.54;66.07;101304.03;124875;1099;104149;-75
2022/10/14 09:59:04;;;;;;;10.27;3.63;;;;;;;15.56;66.04;101297.91;124910;1099;104724;-75
2022/10/14 10:01:38;;;;;;;;;;;;;;;15.58;65.15;101306.80;124861;1099;104240;-74
2022/10/14 10:04:27;;;;;;;11.63;4.70;;;;;;;15.62;66.10;101299.84;124922;1099;104268;-75
2022/10/14 10:07:00;;;;;;;8.13;3.60;;;;;;;15.66;65.69;101293.79;124910;1099;104238;-74
2022/10/14 10:09:31;;;;;;;11.60;4.23;;;;;;;15.72;65.42;101299.25;124970;1099;104246;-75
2022/10/14 10:12:21;;;;;;;11.77;4.27;;;;;;;15.77;65.57;101295.00;124896;1098;104332;-75
2022/10/14 10:15:02;;;;;;;10.43;3.60;;;;;;;15.81;65.18;101296.86;124938;1099;104303;-74
2022/10/14 10:17:35;;;;;;;7.87;3.30;;;;;;;15.87;64.42;101293.49;124827;1099;103408;-75
2022/10/14 10:20:22;;;;;;;11.80;3.60;;;;;;;15.94;64.14;101294.54;124801;1099;104163;-74
2022/10/14 10:22:53;;;;;;;8.63;3.53;;;;;;;15.97;64.63;101299.91;124815;1099;104214;-74
2022/10/14 10:25:27;;;;;;;8.30;3.50;;;;;;;15.96;63.60;101293.73;124471;1099;104317;-75
2022/10/14 10:28:00;;;;;;;11.73;3.50;;;;;;;16.00;63.52;101292.05;124944;1099;104361;-75
2022/10/14 10:30:39;;;;;;;11.53;3.70;;;;;;;16.06;63.17;101281.63;124931;1099;104163;-75
2022/10/14 10:33:26;;;;;;;7.83;3.47;;;;;;;16.10;63.49;101279.97;124915;1099;104249;-74
2022/10/14 10:36:17;;;;;;;7.95;3.55;;;;;;;16.20;63.58;101270.50;124853;1099;102809;-75
2022/10/14 10:39:05;;;;;;;10.50;3.60;;;;;;;16.23;63.06;101274.11;124885;1099;104201;-75
2022/10/14 10:41:53;;;;;;;9.40;3.90;;;;;;;16.27;63.24;101273.34;124849;1099;104076;-75
2022/10/14 10:44:44;;;;;;;8.27;3.37;;;;;;;16.31;63.02;101271.66;124836;1099;103334;-74
2022/10/14 10:47:35;;;;;;;10.47;3.43;;;;;;;16.33;62.22;101272.58;124833;1099;102829;-75
2022/10/14 10:50:34;;;;;;;9.03;3.60;;;;;;;16.31;62.42;101263.71;124923;1099;102902;-74
2022/10/14 10:53:28;;;;;;;10.33;3.80;;;;;;;16.29;62.30;101270.73;124843;1098;103123;-74
2022/10/14 10:56:12;;;;;;;8.83;3.67;;;;;;;16.24;61.48;101267.09;124767;1099;104166;-75
2022/10/14 10:58:55;;;;;;;9.40;4.03;;;;;;;16.21;62.13;101265.25;124985;1099;102909;-74
2022/10/14 11:01:38;;;;;;;8.50;3.30;;;;;;;16.13;61.87;101257.11;124882;1099;104165;-74
2022/10/14 11:04:26;;;;;;;10.72;3.70;;;;;;;16.08;61.67;101257.84;125071;1099;102332;-73
2022/10/14 11:13:04;;;;;;;8.93;3.50;;;;;;;15.85;61.16;101250.22;124793;1098;104637;-75
2022/10/14 11:15:44;;;;;;;10.37;3.60;;;;;;;15.81;60.66;101245.70;124869;1099;102986;-74
2022/10/14 11:18:27;;;;;;;6.90;3.20;;;;;;;15.73;60.98;101247.22;124777;1099;102926;-74
2022/10/14 11:21:12;;;;;;;9.77;3.40;;;;;;;15.69;61.01;101246.25;124865;1099;102924;-75
2022/10/14 11:23:58;;;;;;;11.87;3.80;;;;;;;15.70;61.04;101241.84;124703;1098;104629;-74
2022/10/14 11:26:44;;;;;;;12.27;3.77;;;;;;;15.72;60.17;101234.83;124808;1099;104319;-74
2022/10/14 11:29:29;;;;;;;9.27;3.53;;;;;;;15.75;59.99;101240.20;124786;1099;112024;-74
2022/10/14 11:32:10;;;;;;;9.00;3.30;;;;;;;15.81;59.99;101233.34;124944;1098;101994;-75
2022/10/14 11:35:00;;;;;;;10.50;3.40;;;;;;;15.89;60.43;101232.66;124320;1099;104342;-75
2022/10/14 11:37:46;;;;;;;9.73;3.50;;;;;;;15.93;60.16;101229.25;124764;1099;104338;-75
2022/10/14 11:40:25;;;;;;;9.67;3.70;;;;;;;15.96;59.49;101230.21;124460;1099;102409;-74
2022/10/14 11:43:13;;;;;;;10.73;3.50;;;;;;;15.97;59.84;101226.72;124762;1099;102822;-75
2022/10/14 11:45:51;;;;;;;8.40;3.40;;;;;;;16.00;59.26;101220.59;125040;1099;104178;-74